Airfield :
LOGIN :

Register | Disclaimer

   EN    FR    IT 

 










Legend :    VFR   Marginal VFR   IFR   Intensive IFR   Very Intensive IFR
Visi :
Ceiling :
>= 8 km
>= 3000ft
5 to 8 km
1000 to 3000 ft
1500m to 5 km
500 to 1000 ft
800 to 1500m
200 to 500 ft
< 800m
< 200 ft
Symbols :   Thunderstorms  Fog  Heavy snow  Heavy precipitations  Wind > 20 kt
SIGMETs :     Misc.  Thunderstorms  Icing  Turbulence  Mountain Waves  Volcanic Ashes






- Airport Elevation : 55 ft
- IATA code : DSA


EGCN - Robin Hood Doncaster Sheffield

CURRENT METAR :
  • 252050Z 23013KT 9999 BKN024 13/07 Q1009

EXPIRED METARs :
  • 252020Z 22013KT 9999 SCT031 BKN036 BKN044 13/07 Q1010
  • 251950Z 23011KT 9999 BKN031 BKN037 13/07 Q1011
  • 251920Z 24011KT 9999 BKN027 13/07 Q1012
  • 251850Z 24012KT 9999 SCT029 BKN035 13/07 Q1012
  • 251820Z 24012KT 9999 BKN030 13/07 Q1012

TAF TAF EGCN
Valid from the 25 at 18:00 until the 26 at 18:00 UTC


251651Z 2518/2618 25012KT 9999 FEW045
TEMPO 2521/2602 26015G25KT 7000 RA BKN014
TEMPO 2602/2612 6000 SHRA
BECMG 2605/2608 31009KT
PROB30
TEMPO 2612/2615 7000 SHRA



MET'MAP, your aeronautical weather chart ! - Copyright ORBIFLY December 2007 - Disclaimer

ORBIFLY MET'MAP TEAM :

Programming & Development : Alexandra Zaïnal
Original concept : Baudouin d'Aumeries
Technical & hardware support : Manuel Goepfert
Assistance : Marc-Olivier Méhu




SOURCES & CREDITS :

   NOAA